Time;durP1;ratioP1;P1;durP2;ratioP2;P2;SDS_P1;SDS_P2;PMS_P1;PMS_P2;Temp;Humidity;BMP_temperature;BMP_pressure;BME280_temperature;BME280_humidity;BME280_pressure;Samples;Min_cycle;Max_cycle;Signal;HPM_P1;HPM_P2
2022/06/19 00:02:15;;;;;;;13.73;12.43;;;24.80;99.90;;;;;;5114803;28;20414;-70
2022/06/19 00:04:41;;;;;;;13.53;12.20;;;24.70;99.90;;;;;;5114940;28;20414;-68
2022/06/19 00:07:08;;;;;;;13.77;12.57;;;24.60;99.90;;;;;;5115354;28;20502;-68
2022/06/19 00:09:33;;;;;;;13.30;12.30;;;24.60;99.90;;;;;;5121587;27;20474;-68
2022/06/19 00:11:59;;;;;;;14.57;13.30;;;24.60;99.90;;;;;;5135054;27;20408;-68
2022/06/19 00:14:25;;;;;;;14.03;12.83;;;24.60;99.90;;;;;;5126917;27;20244;-68
2022/06/19 00:16:51;;;;;;;15.30;14.03;;;24.50;99.90;;;;;;5114503;28;20230;-68
2022/06/19 00:19:17;;;;;;;14.27;13.17;;;24.50;99.90;;;;;;5113917;28;20535;-68
2022/06/19 00:21:44;;;;;;;14.10;12.80;;;24.40;99.90;;;;;;5115374;28;20457;-68
2022/06/19 00:24:10;;;;;;;15.73;14.27;;;24.40;99.90;;;;;;5114805;28;20837;-68
2022/06/19 00:26:36;;;;;;;13.80;12.60;;;24.40;99.90;;;;;;5113824;28;20905;-68
2022/06/19 00:29:02;;;;;;;14.20;12.97;;;24.30;99.90;;;;;;5114910;27;20405;-68
2022/06/19 00:31:27;;;;;;;15.50;13.90;;;24.30;99.90;;;;;;5134468;27;20194;-68
2022/06/19 00:33:54;;;;;;;14.63;13.33;;;24.30;99.90;;;;;;5135230;27;20409;-68
2022/06/19 00:36:21;;;;;;;15.93;14.33;;;24.30;99.90;;;;;;5134541;27;20187;-68
2022/06/19 00:38:50;;;;;;;15.00;13.67;;;24.20;99.90;;;;;;5135167;27;20401;-68
2022/06/19 00:41:16;;;;;;;16.77;15.33;;;24.20;99.90;;;;;;5134556;27;20413;-70
2022/06/19 00:43:57;;;;;;;16.30;14.90;;;24.20;99.90;;;;;;5131727;27;20447;-68
2022/06/19 00:46:43;;;;;;;14.97;13.77;;;24.20;99.90;;;;;;5112900;28;20437;-68
2022/06/19 00:49:14;;;;;;;16.00;14.60;;;24.20;99.90;;;;;;5131171;27;20428;-68
2022/06/19 00:51:40;;;;;;;18.70;16.90;;;24.20;99.90;;;;;;5134567;27;20439;-68
2022/06/19 00:54:06;;;;;;;17.47;15.77;;;24.20;99.90;;;;;;5133561;27;20440;-68
2022/06/19 00:56:32;;;;;;;17.30;15.80;;;24.10;99.90;;;;;;5133977;27;20179;-68
2022/06/19 00:58:58;;;;;;;14.90;13.60;;;24.10;99.90;;;;;;5134848;27;20407;-68
2022/06/19 01:01:26;;;;;;;19.47;17.57;;;24.10;99.90;;;;;;5133957;27;20171;-68
2022/06/19 01:04:14;;;;;;;18.23;16.63;;;24.00;99.90;;;;;;5135112;27;20171;-68
2022/06/19 01:06:40;;;;;;;16.57;15.00;;;24.00;99.90;;;;;;5135050;27;20410;-68
2022/06/19 01:09:05;;;;;;;14.57;13.43;;;24.00;99.90;;;;;;5134957;27;20408;-68
2022/06/19 01:11:38;;;;;;;15.93;14.60;;;23.90;99.90;;;;;;5134402;27;20228;-68
2022/06/19 01:14:07;;;;;;;15.13;13.87;;;23.90;99.90;;;;;;5127807;27;20203;-68
2022/06/19 01:16:33;;;;;;;17.33;15.67;;;23.80;99.90;;;;;;5113917;28;20409;-68
2022/06/19 01:19:00;;;;;;;14.13;13.13;;;23.80;99.90;;;;;;5113794;28;20975;-68
2022/06/19 01:21:40;;;;;;;14.00;12.67;;;23.80;99.90;;;;;;5128878;27;20995;-68
2022/06/19 01:24:12;;;;;;;13.50;12.40;;;23.70;99.90;;;;;;5131844;27;20423;-68
2022/06/19 01:26:45;;;;;;;13.03;11.40;;;23.70;99.90;;;;;;5112353;27;20439;-68
2022/06/19 01:29:11;;;;;;;11.30;10.50;;;23.70;99.90;;;;;;5114020;28;20412;-68
2022/06/19 01:31:43;;;;;;;11.53;10.63;;;23.60;99.90;;;;;;5113363;27;20394;-68
2022/06/19 01:34:28;;;;;;;13.47;11.40;;;23.60;99.90;;;;;;5134049;27;20432;-68
2022/06/19 01:37:01;;;;;;;12.90;11.90;;;23.50;99.90;;;;;;5133506;27;20440;-68
2022/06/19 01:39:31;;;;;;;13.33;12.23;;;23.30;99.90;;;;;;5132319;27;20947;-68
2022/06/19 01:41:57;;;;;;;12.63;11.70;;;23.30;99.90;;;;;;5133727;27;20593;-68
2022/06/19 01:44:23;;;;;;;13.03;11.83;;;23.20;99.90;;;;;;5132006;27;20436;-69
2022/06/19 01:46:50;;;;;;;14.57;13.07;;;23.20;99.90;;;;;;5093154;28;20180;-68
2022/06/19 01:49:16;;;;;;;12.40;11.50;;;23.20;99.90;;;;;;5092715;28;20810;-68
2022/06/19 01:51:42;;;;;;;13.90;12.77;;;23.20;99.90;;;;;;5092189;28;20411;-68
2022/06/19 01:54:18;;;;;;;11.43;10.53;;;23.20;99.90;;;;;;5092513;28;20648;-68
2022/06/19 01:56:45;;;;;;;13.50;12.10;;;23.20;99.90;;;;;;5110121;28;21041;-68
2022/06/19 01:59:11;;;;;;;12.93;12.03;;;23.20;99.90;;;;;;5113116;28;20768;-67
2022/06/19 02:01:38;;;;;;;13.27;12.13;;;23.20;99.90;;;;;;5110912;28;20421;-68
2022/06/19 02:04:06;;;;;;;13.37;12.40;;;23.10;99.90;;;;;;5112771;28;20210;-68
2022/06/19 02:06:46;;;;;;;14.40;13.20;;;23.10;99.90;;;;;;5132537;27;20419;-68
2022/06/19 02:09:15;;;;;;;13.80;12.60;;;23.00;99.90;;;;;;5133590;27;20404;-68
2022/06/19 02:11:41;;;;;;;13.63;12.37;;;23.00;99.90;;;;;;5132738;27;20563;-68
2022/06/19 02:14:09;;;;;;;13.50;12.40;;;22.90;99.90;;;;;;5133727;27;20947;-68
2022/06/19 02:16:40;;;;;;;13.20;12.27;;;22.90;99.90;;;;;;5133488;27;20412;-68
2022/06/19 02:19:06;;;;;;;12.70;11.80;;;22.90;99.90;;;;;;5132325;27;20417;-69
2022/06/19 02:21:41;;;;;;;12.80;11.70;;;22.80;99.90;;;;;;5132851;27;20488;-68
2022/06/19 02:24:10;;;;;;;12.90;11.80;;;22.90;99.90;;;;;;5092880;28;20437;-68
2022/06/19 02:26:39;;;;;;;14.27;11.73;;;22.80;99.90;;;;;;5108692;28;20805;-68
2022/06/19 02:29:09;;;;;;;13.87;11.30;;;22.80;99.90;;;;;;5132300;27;20516;-68
2022/06/19 02:31:37;;;;;;;12.30;11.20;;;22.70;99.90;;;;;;5133380;27;20429;-68
2022/06/19 02:34:07;;;;;;;13.03;11.73;;;22.80;99.90;;;;;;5136194;27;20405;-68
2022/06/19 02:36:34;;;;;;;15.63;14.33;;;22.70;99.90;;;;;;5139622;27;20393;-68
2022/06/19 02:39:17;;;;;;;13.00;11.80;;;22.80;99.90;;;;;;5139444;27;20432;-68
2022/06/19 02:41:48;;;;;;;12.40;11.37;;;22.80;99.90;;;;;;5139254;27;21283;-68
2022/06/19 02:44:14;;;;;;;12.40;11.50;;;22.80;99.90;;;;;;5140138;27;20856;-68
2022/06/19 02:46:39;;;;;;;15.80;14.40;;;22.80;99.90;;;;;;5137911;27;20428;-68
2022/06/19 02:49:05;;;;;;;11.40;10.50;;;22.70;99.90;;;;;;5139622;27;20656;-68
2022/06/19 02:51:31;;;;;;;15.30;13.90;;;22.70;99.90;;;;;;5139183;27;20197;-68
2022/06/19 02:53:58;;;;;;;13.57;12.37;;;22.70;99.90;;;;;;5134186;27;20176;-68
2022/06/19 02:56:23;;;;;;;11.40;10.50;;;22.70;99.90;;;;;;5077859;28;20192;-70
2022/06/19 02:58:49;;;;;;;15.70;14.40;;;22.70;99.90;;;;;;5098762;28;20467;-68
2022/06/19 03:01:15;;;;;;;11.33;10.47;;;22.70;99.90;;;;;;5117214;27;20190;-68
2022/06/19 03:03:41;;;;;;;12.70;11.70;;;22.70;99.90;;;;;;5118431;28;20775;-68
2022/06/19 03:06:07;;;;;;;12.03;11.13;;;22.70;99.90;;;;;;5117777;27;20511;-68
2022/06/19 03:08:33;;;;;;;10.90;10.13;;;22.80;99.90;;;;;;5119003;28;20171;-68
2022/06/19 03:10:59;;;;;;;9.50;8.70;;;22.70;99.90;;;;;;5119221;28;21011;-68
2022/06/19 03:13:26;;;;;;;11.70;10.80;;;22.80;99.90;;;;;;5132861;27;20269;-68
2022/06/19 03:16:07;;;;;;;9.90;9.10;;;22.80;99.90;;;;;;5140141;27;20205;-68
2022/06/19 03:18:35;;;;;;;9.50;8.80;;;22.70;99.90;;;;;;5138404;27;20428;-68
2022/06/19 03:21:00;;;;;;;9.60;8.93;;;22.70;99.90;;;;;;5140156;27;20456;-68
2022/06/19 03:23:26;;;;;;;9.27;8.53;;;22.70;99.90;;;;;;5139442;27;20413;-68
2022/06/19 03:25:53;;;;;;;9.87;9.07;;;22.70;99.90;;;;;;5125125;27;20188;-68
2022/06/19 03:28:18;;;;;;;11.67;9.03;;;22.70;99.90;;;;;;5119380;28;20405;-68
2022/06/19 03:30:44;;;;;;;11.40;10.50;;;22.60;99.90;;;;;;5124028;27;20471;-68
2022/06/19 03:33:10;;;;;;;13.53;12.13;;;22.60;99.90;;;;;;5138761;27;20171;-68
2022/06/19 03:35:35;;;;;;;10.40;9.67;;;22.60;99.90;;;;;;5139662;27;20258;-68
2022/06/19 03:38:01;;;;;;;13.20;12.03;;;22.70;99.90;;;;;;5140153;27;20171;-68
2022/06/19 03:40:27;;;;;;;7.70;7.20;;;22.60;99.90;;;;;;5138206;27;20197;-68
2022/06/19 03:42:52;;;;;;;8.00;7.33;;;22.70;99.90;;;;;;5139943;27;20171;-68
2022/06/19 03:45:18;;;;;;;9.03;8.43;;;22.60;99.90;;;;;;5137856;27;20175;-68
2022/06/19 03:47:44;;;;;;;10.40;9.40;;;22.60;99.90;;;;;;5134751;27;20197;-68
2022/06/19 03:50:17;;;;;;;8.80;7.63;;;22.60;99.90;;;;;;5136584;27;20242;-68
2022/06/19 03:52:43;;;;;;;7.07;6.37;;;22.50;99.90;;;;;;5135929;27;20155;-68
2022/06/19 03:55:08;;;;;;;8.00;7.30;;;22.50;99.90;;;;;;5124521;27;20428;-68
2022/06/19 03:57:34;;;;;;;9.67;8.77;;;22.40;99.90;;;;;;5120226;27;20171;-68
2022/06/19 04:00:00;;;;;;;8.23;7.73;;;22.40;99.90;;;;;;5115770;28;20619;-68
2022/06/19 04:02:26;;;;;;;6.47;6.07;;;22.40;99.90;;;;;;5120425;27;20183;-68
2022/06/19 04:04:52;;;;;;;9.17;8.30;;;22.40;99.90;;;;;;5136268;27;20175;-68
2022/06/19 04:07:17;;;;;;;10.57;9.67;;;22.40;99.90;;;;;;5134316;27;20179;-68
2022/06/19 04:09:44;;;;;;;8.00;7.50;;;22.30;99.90;;;;;;5135504;27;20813;-68
2022/06/19 04:12:10;;;;;;;13.17;11.97;;;22.30;99.90;;;;;;5131592;27;20172;-68
2022/06/19 04:14:36;;;;;;;11.70;10.83;;;22.30;99.90;;;;;;5114887;28;20405;-68
2022/06/19 04:17:04;;;;;;;9.07;8.47;;;22.30;99.90;;;;;;5115582;28;20490;-68
2022/06/19 04:19:29;;;;;;;8.93;8.13;;;22.30;99.90;;;;;;5114989;28;20937;-68
2022/06/19 04:21:55;;;;;;;8.43;7.70;;;22.30;99.90;;;;;;5104138;28;20542;-68
2022/06/19 04:24:21;;;;;;;7.00;6.50;;;22.30;99.90;;;;;;5109828;28;20199;-68
2022/06/19 04:26:47;;;;;;;8.07;7.50;;;22.30;99.90;;;;;;5093436;28;20195;-68
2022/06/19 04:29:15;;;;;;;8.60;7.70;;;22.30;99.90;;;;;;5094722;28;20213;-68
2022/06/19 04:31:41;;;;;;;5.80;5.40;;;22.20;99.90;;;;;;5092903;28;20421;-68
2022/06/19 04:34:08;;;;;;;7.97;7.37;;;22.20;99.90;;;;;;5094719;28;20415;-68
2022/06/19 04:36:34;;;;;;;5.87;5.40;;;22.20;99.90;;;;;;5094216;28;20837;-68
2022/06/19 04:39:00;;;;;;;6.23;5.73;;;22.10;99.90;;;;;;5094627;28;20409;-68
2022/06/19 04:41:37;;;;;;;6.67;5.97;;;22.10;99.90;;;;;;5094304;28;20422;-68
2022/06/19 04:44:05;;;;;;;8.30;7.23;;;22.00;99.90;;;;;;5094005;28;20184;-68
2022/06/19 04:46:31;;;;;;;11.10;8.37;;;22.00;99.90;;;;;;5093350;28;20431;-68
2022/06/19 04:48:57;;;;;;;6.67;5.60;;;22.00;99.90;;;;;;5111509;28;20441;-68
2022/06/19 04:51:24;;;;;;;6.77;5.63;;;22.00;99.90;;;;;;5114438;28;20242;-68
2022/06/19 04:53:51;;;;;;;5.13;4.63;;;22.00;99.90;;;;;;5110752;28;20428;-68
2022/06/19 04:56:18;;;;;;;6.27;5.67;;;22.00;99.90;;;;;;5094237;28;20422;-68
2022/06/19 04:58:44;;;;;;;5.67;5.00;;;22.00;99.30;;;;;;5092917;28;20518;-68
2022/06/19 05:01:19;;;;;;;7.57;6.67;;;22.00;98.70;;;;;;5093267;28;20427;-68
2022/06/19 05:03:45;;;;;;;6.93;6.43;;;21.90;99.90;;;;;;5093056;28;20532;-68
2022/06/19 05:06:10;;;;;;;6.53;6.03;;;21.90;99.90;;;;;;5094168;28;20493;-68
2022/06/19 05:08:36;;;;;;;6.53;5.93;;;21.90;99.90;;;;;;5093527;28;20415;-68
2022/06/19 05:11:02;;;;;;;9.43;6.60;;;21.90;99.90;;;;;;5094023;28;20630;-68
2022/06/19 05:13:28;;;;;;;6.27;5.57;;;21.80;99.90;;;;;;5093242;28;20267;-68
2022/06/19 05:16:14;;;;;;;5.77;5.20;;;21.90;99.90;;;;;;5093751;28;20640;-68
2022/06/19 05:18:40;;;;;;;6.73;6.03;;;21.90;99.90;;;;;;5092959;28;20418;-68
2022/06/19 05:21:06;;;;;;;5.30;4.90;;;21.90;99.90;;;;;;5107498;28;20552;-68
2022/06/19 05:23:34;;;;;;;5.80;5.27;;;21.90;99.90;;;;;;5113535;28;20841;-68
2022/06/19 05:26:07;;;;;;;6.70;6.17;;;21.90;99.90;;;;;;5113432;28;20436;-68
2022/06/19 05:28:33;;;;;;;7.20;5.00;;;21.90;99.90;;;;;;5113536;28;20409;-68
2022/06/19 05:31:00;;;;;;;6.23;4.40;;;21.90;98.70;;;;;;5113939;28;20449;-68
2022/06/19 05:33:28;;;;;;;5.43;4.67;;;21.90;98.90;;;;;;5122514;27;20420;-68
2022/06/19 05:35:54;;;;;;;7.80;6.00;;;21.90;98.50;;;;;;5133540;27;20413;-68
2022/06/19 05:38:20;;;;;;;6.00;5.30;;;21.90;97.40;;;;;;5134541;27;20468;-68
2022/06/19 05:40:49;;;;;;;5.00;4.50;;;21.80;99.20;;;;;;5132464;27;20990;-68
2022/06/19 05:43:14;;;;;;;5.20;4.70;;;21.80;99.60;;;;;;5131038;27;20425;-68
2022/06/19 05:45:40;;;;;;;4.70;4.30;;;21.80;99.40;;;;;;5109220;27;20433;-68
2022/06/19 05:48:06;;;;;;;7.03;4.70;;;21.80;98.60;;;;;;5115962;27;20179;-68
2022/06/19 05:50:31;;;;;;;5.60;5.00;;;21.80;97.80;;;;;;5127851;27;20215;-70
2022/06/19 05:52:57;;;;;;;8.63;5.63;;;21.90;99.60;;;;;;5120507;27;20198;-68
2022/06/19 05:55:23;;;;;;;6.33;5.40;;;21.90;99.10;;;;;;5124403;27;20180;-68
2022/06/19 05:57:48;;;;;;;7.77;5.27;;;21.90;96.90;;;;;;5115183;27;20184;-68
2022/06/19 06:00:14;;;;;;;8.00;5.20;;;21.90;97.10;;;;;;5117151;27;20249;-68
2022/06/19 06:02:41;;;;;;;5.93;5.23;;;21.90;96.60;;;;;;5115662;27;20184;-69
2022/06/19 06:05:07;;;;;;;7.33;6.00;;;22.00;98.00;;;;;;5112133;28;20425;-68
2022/06/19 06:07:33;;;;;;;6.70;6.00;;;22.00;96.70;;;;;;5112349;28;20759;-68
2022/06/19 06:09:59;;;;;;;8.43;5.80;;;22.00;97.30;;;;;;5108367;27;20479;-68
2022/06/19 06:12:25;;;;;;;7.83;6.17;;;22.10;97.40;;;;;;5128042;27;20175;-68
2022/06/19 06:14:51;;;;;;;6.40;5.87;;;22.20;98.10;;;;;;5112066;28;20412;-68
2022/06/19 06:17:17;;;;;;;6.60;5.90;;;22.20;97.90;;;;;;5112507;28;20421;-68
2022/06/19 06:19:43;;;;;;;7.17;5.73;;;22.30;96.40;;;;;;5110816;28;20176;-70
2022/06/19 06:22:09;;;;;;;7.30;5.30;;;22.40;94.80;;;;;;5117169;27;20995;-68
2022/06/19 06:24:34;;;;;;;7.50;5.97;;;22.30;91.00;;;;;;5113069;27;20183;-70
2022/06/19 06:27:05;;;;;;;8.33;6.10;;;22.00;90.50;;;;;;5115166;27;20308;-68
2022/06/19 06:29:32;;;;;;;6.33;5.70;;;21.70;91.20;;;;;;5105606;28;20184;-70
2022/06/19 06:31:58;;;;;;;7.47;4.40;;;21.60;94.00;;;;;;5105634;28;20440;-69
2022/06/19 06:34:24;;;;;;;8.07;4.90;;;21.60;93.30;;;;;;5105741;28;20800;-69
2022/06/19 06:36:50;;;;;;;7.10;5.10;;;21.30;92.20;;;;;;5096994;28;20271;-69
2022/06/19 06:39:16;;;;;;;6.10;4.83;;;21.00;92.30;;;;;;5092482;28;21016;-69
2022/06/19 06:41:41;;;;;;;11.93;5.77;;;21.00;93.70;;;;;;5102207;28;20190;-70
2022/06/19 06:44:12;;;;;;;9.40;5.20;;;20.70;93.50;;;;;;5130693;27;20253;-70
2022/06/19 06:46:38;;;;;;;8.20;5.17;;;20.70;94.20;;;;;;5100129;28;20184;-73
2022/06/19 06:49:04;;;;;;;9.27;5.50;;;20.50;93.50;;;;;;5106186;28;20821;-69
2022/06/19 06:51:31;;;;;;;5.30;4.67;;;20.30;94.50;;;;;;5112492;28;20674;-69
2022/06/19 06:53:59;;;;;;;7.03;5.27;;;20.50;97.30;;;;;;5111627;28;21094;-70
2022/06/19 06:56:25;;;;;;;7.00;4.67;;;20.60;97.00;;;;;;5112500;28;20470;-69
2022/06/19 06:58:51;;;;;;;7.23;4.70;;;20.70;95.90;;;;;;5111649;28;20413;-69
2022/06/19 07:01:22;;;;;;;5.43;4.70;;;20.70;95.00;;;;;;5110044;28;20519;-69
2022/06/19 07:03:54;;;;;;;5.07;4.60;;;20.80;95.90;;;;;;5110371;28;20413;-69
2022/06/19 07:06:25;;;;;;;9.90;5.53;;;21.00;97.10;;;;;;5112594;28;20753;-69
2022/06/19 07:08:51;;;;;;;6.77;5.20;;;21.10;95.70;;;;;;5109422;28;20432;-69
2022/06/19 07:11:31;;;;;;;8.93;4.23;;;21.20;94.40;;;;;;5132950;28;20467;-69
2022/06/19 07:13:57;;;;;;;7.63;4.70;;;21.30;94.60;;;;;;5132798;28;20415;-69
2022/06/19 07:16:23;;;;;;;8.10;6.30;;;21.50;96.50;;;;;;5132066;28;20401;-69
2022/06/19 07:18:49;;;;;;;6.03;5.20;;;21.70;95.30;;;;;;5127752;28;20212;-69
2022/06/19 07:21:15;;;;;;;10.73;6.03;;;21.80;94.90;;;;;;5114593;28;20833;-69
2022/06/19 07:23:41;;;;;;;6.70;5.97;;;21.90;94.80;;;;;;5114041;28;20203;-69
2022/06/19 07:26:17;;;;;;;8.93;5.87;;;22.10;96.20;;;;;;5116516;28;20409;-69
2022/06/19 07:28:44;;;;;;;7.50;4.90;;;22.30;95.10;;;;;;5115830;28;20508;-69
2022/06/19 07:31:10;;;;;;;6.93;4.50;;;22.50;94.80;;;;;;5114447;28;20479;-69
2022/06/19 07:33:37;;;;;;;8.03;4.57;;;22.60;94.40;;;;;;5128643;27;20887;-69
2022/06/19 07:36:15;;;;;;;6.33;5.73;;;22.70;94.70;;;;;;5116393;28;20406;-69
2022/06/19 07:38:41;;;;;;;6.50;5.70;;;22.80;94.50;;;;;;5115661;28;20405;-69
2022/06/19 07:41:07;;;;;;;9.83;5.30;;;22.90;94.00;;;;;;5125321;27;20464;-69
2022/06/19 07:43:33;;;;;;;6.27;4.57;;;23.00;94.60;;;;;;5108303;28;20482;-69
2022/06/19 07:45:59;;;;;;;5.07;4.60;;;23.10;95.90;;;;;;5122865;27;20780;-69
2022/06/19 07:51:09;;;;;;;10.40;4.17;;;23.50;97.00;;;;;;5115367;27;20202;-71
2022/06/19 07:53:34;;;;;;;4.73;4.23;;;23.50;95.20;;;;;;5114568;27;20832;-73
2022/06/19 07:56:00;;;;;;;6.57;5.77;;;23.50;94.60;;;;;;5118494;27;20184;-71
2022/06/19 07:58:26;;;;;;;6.20;4.70;;;23.50;93.90;;;;;;5113174;27;20180;-71
2022/06/19 08:00:52;;;;;;;5.33;4.83;;;23.50;93.20;;;;;;5111685;28;20545;-71
2022/06/19 08:03:18;;;;;;;6.90;5.53;;;23.60;93.50;;;;;;5115164;28;20413;-71
2022/06/19 08:05:46;;;;;;;12.57;7.63;;;23.60;92.40;;;;;;5114763;28;21001;-72
2022/06/19 08:08:21;;;;;;;7.57;6.20;;;23.60;92.90;;;;;;5114126;28;20187;-71
2022/06/19 08:10:50;;;;;;;8.70;6.90;;;23.60;92.70;;;;;;5112577;27;20472;-71
2022/06/19 08:13:20;;;;;;;10.93;9.77;;;23.60;92.50;;;;;;5109591;27;20959;-71
2022/06/19 08:15:51;;;;;;;10.67;7.67;;;23.60;92.80;;;;;;5114435;28;20414;-71
2022/06/19 08:18:18;;;;;;;11.33;10.13;;;23.70;92.60;;;;;;5115030;28;20413;-71
2022/06/19 08:20:45;;;;;;;10.80;8.07;;;23.80;92.40;;;;;;5114009;27;20453;-71
2022/06/19 08:23:13;;;;;;;11.40;8.73;;;23.90;92.80;;;;;;5115371;28;20472;-71
2022/06/19 08:25:40;;;;;;;11.20;9.77;;;24.00;92.50;;;;;;5113314;27;20917;-71
2022/06/19 08:28:06;;;;;;;10.20;9.00;;;24.10;91.70;;;;;;5104930;28;21024;-71
2022/06/19 08:30:35;;;;;;;15.77;12.77;;;24.20;91.90;;;;;;5110954;27;20867;-71
2022/06/19 08:33:05;;;;;;;15.43;13.77;;;24.30;91.10;;;;;;5110511;27;20444;-72
2022/06/19 08:35:33;;;;;;;7.10;6.10;;;24.30;91.20;;;;;;5116017;27;20490;-71
2022/06/19 08:38:04;;;;;;;18.80;16.13;;;24.40;90.60;;;;;;5123883;27;20493;-72
2022/06/19 08:40:51;;;;;;;17.87;14.73;;;24.50;91.10;;;;;;5120491;27;20495;-71
2022/06/19 08:43:55;;;;;;;9.17;8.03;;;24.60;90.50;;;;;;5110019;27;20427;-72
2022/06/19 08:46:35;;;;;;;26.13;20.23;;;24.70;89.70;;;;;;5099159;28;20517;-71
2022/06/19 08:49:26;;;;;;;17.07;14.70;;;24.70;90.80;;;;;;5119100;27;20649;-72
2022/06/19 08:52:00;;;;;;;16.60;10.60;;;24.80;90.40;;;;;;5122914;27;20494;-73
2022/06/19 08:54:51;;;;;;;51.93;38.20;;;24.90;90.40;;;;;;5101307;28;20439;-72
2022/06/19 08:57:25;;;;;;;34.43;25.47;;;25.10;91.80;;;;;;5104524;27;20429;-71
2022/06/19 09:00:08;;;;;;;21.23;12.60;;;25.20;91.10;;;;;;5099410;28;20456;-72
2022/06/19 09:02:53;;;;;;;14.37;11.47;;;25.30;88.00;;;;;;5124355;27;20449;-72
2022/06/19 09:05:53;;;;;;;20.83;14.90;;;25.50;87.10;;;;;;5118334;27;20765;-71
2022/06/19 09:08:38;;;;;;;13.20;11.73;;;25.60;87.40;;;;;;5093706;28;20399;-72
2022/06/19 09:11:44;;;;;;;14.90;12.10;;;25.60;86.50;;;;;;5100517;27;20436;-78
2022/06/19 09:14:42;;;;;;;38.40;31.47;;;25.80;87.30;;;;;;5107163;27;20425;-77
2022/06/19 09:17:13;;;;;;;21.80;16.93;;;26.00;86.60;;;;;;5106832;28;20582;-76
2022/06/19 09:19:51;;;;;;;14.60;12.43;;;26.00;85.80;;;;;;5104756;28;20435;-78
2022/06/19 09:22:36;;;;;;;13.37;9.43;;;26.30;86.30;;;;;;5100876;28;20438;-78
2022/06/19 09:25:25;;;;;;;19.20;13.87;;;26.30;83.20;;;;;;5092646;28;20395;-78
2022/06/19 09:28:01;;;;;;;10.57;9.37;;;26.50;82.80;;;;;;5114700;27;20455;-78
2022/06/19 09:30:33;;;;;;;15.37;11.40;;;26.70;82.60;;;;;;5134256;27;20436;-78
2022/06/19 09:33:03;;;;;;;11.17;8.30;;;26.80;81.60;;;;;;5129665;27;20393;-79
2022/06/19 09:35:35;;;;;;;8.83;7.20;;;26.80;83.10;;;;;;5109025;27;20408;-79
2022/06/19 09:38:11;;;;;;;12.10;7.30;;;26.90;82.60;;;;;;5101184;27;20949;-77
2022/06/19 09:40:47;;;;;;;7.63;5.80;;;26.90;80.50;;;;;;5113712;28;20417;-77
2022/06/19 09:43:30;;;;;;;9.13;7.97;;;26.90;80.10;;;;;;5110597;28;20959;-77
2022/06/19 09:46:20;;;;;;;11.67;9.20;;;26.80;80.60;;;;;;5092460;28;20453;-78
2022/06/19 09:48:59;;;;;;;11.27;7.77;;;26.70;81.00;;;;;;5108212;28;20973;-78
2022/06/19 09:51:36;;;;;;;8.50;7.00;;;26.60;79.60;;;;;;5098201;27;20795;-78
2022/06/19 09:54:10;;;;;;;10.50;9.40;;;26.40;79.20;;;;;;5122783;27;20417;-79
2022/06/19 09:56:59;;;;;;;9.80;7.83;;;26.20;79.40;;;;;;5125687;27;20417;-78
2022/06/19 09:59:36;;;;;;;10.53;8.70;;;26.10;81.70;;;;;;5115039;27;20497;-73
2022/06/19 10:02:30;;;;;;;8.33;7.43;;;26.00;82.00;;;;;;5116023;27;20921;-72
2022/06/19 10:05:09;;;;;;;12.60;7.10;;;25.80;84.30;;;;;;5126056;27;20437;-72
2022/06/19 10:07:44;;;;;;;7.13;6.53;;;25.70;83.60;;;;;;5125271;27;20429;-71
2022/06/19 10:10:28;;;;;;;9.80;6.93;;;25.70;83.00;;;;;;5110774;28;20476;-72
2022/06/19 10:12:56;;;;;;;9.23;6.60;;;25.60;83.10;;;;;;5110522;28;20433;-73
2022/06/19 10:15:34;;;;;;;6.47;5.77;;;25.60;82.90;;;;;;5093843;28;20782;-72
2022/06/19 10:18:13;;;;;;;9.97;6.97;;;25.50;82.40;;;;;;5100973;27;20426;-73
2022/06/19 10:20:47;;;;;;;17.47;15.60;;;25.40;84.60;;;;;;5126012;27;21049;-73
2022/06/19 10:23:34;;;;;;;10.43;7.20;;;25.30;83.90;;;;;;5114530;27;20932;-71
2022/06/19 10:26:19;;;;;;;5.73;5.20;;;25.30;80.90;;;;;;5117775;28;20484;-69
2022/06/19 10:29:02;;;;;;;8.10;4.87;;;25.10;81.20;;;;;;5114382;28;20549;-70
2022/06/19 10:31:49;;;;;;;9.13;5.67;;;25.00;82.70;;;;;;5129287;27;20457;-70
2022/06/19 10:34:33;;;;;;;10.10;6.30;;;25.00;86.30;;;;;;5124522;27;20923;-69
2022/06/19 10:37:20;;;;;;;7.57;6.00;;;25.00;82.20;;;;;;5129642;28;20420;-73
2022/06/19 10:40:14;;;;;;;10.30;6.60;;;24.40;84.20;;;;;;5105276;28;20482;-71
2022/06/19 10:42:56;;;;;;;12.37;5.53;;;24.30;84.70;;;;;;5124671;27;20536;-71
2022/06/19 10:45:38;;;;;;;8.30;5.80;;;23.80;85.30;;;;;;5125250;28;20509;-71
2022/06/19 10:48:27;;;;;;;10.20;6.23;;;23.90;87.50;;;;;;5111157;28;20429;-71
2022/06/19 10:51:30;;;;;;;12.93;5.87;;;23.90;86.50;;;;;;5111568;28;20441;-75
2022/06/19 10:54:20;;;;;;;10.50;6.30;;;23.50;87.70;;;;;;5112076;28;20409;-72
2022/06/19 10:57:17;;;;;;;10.07;6.23;;;23.50;90.30;;;;;;5117145;28;20402;-71
2022/06/19 10:59:43;;;;;;;7.13;5.93;;;23.60;91.50;;;;;;5101701;28;20976;-71
2022/06/19 11:05:24;;;;;;;21.70;17.10;;;23.80;91.60;;;;;;5116674;28;20885;-71
2022/06/19 11:07:50;;;;;;;12.90;9.47;;;24.10;91.70;;;;;;5095824;28;20482;-75
2022/06/19 11:10:36;;;;;;;9.33;8.10;;;24.30;91.90;;;;;;5121342;27;20535;-71
2022/06/19 11:13:03;;;;;;;10.23;9.10;;;24.60;92.10;;;;;;5112179;27;20184;-71
2022/06/19 11:15:41;;;;;;;10.67;8.83;;;24.90;91.20;;;;;;5120267;27;20452;-72
2022/06/19 11:18:11;;;;;;;10.13;8.90;;;25.10;90.70;;;;;;5061306;28;20805;-71
2022/06/19 11:20:38;;;;;;;9.63;7.13;;;25.20;90.30;;;;;;5116175;28;20465;-70
2022/06/19 11:23:06;;;;;;;13.13;7.90;;;25.30;88.70;;;;;;5120109;27;20902;-71
2022/06/19 11:25:35;;;;;;;10.20;6.73;;;25.40;89.80;;;;;;5136456;27;20499;-71
2022/06/19 11:28:12;;;;;;;8.83;6.27;;;25.50;90.20;;;;;;5134008;27;20471;-71
2022/06/19 11:30:48;;;;;;;12.00;6.20;;;25.60;89.00;;;;;;5136684;27;20438;-69
2022/06/19 11:33:29;;;;;;;10.07;6.53;;;25.80;90.10;;;;;;5127965;27;20921;-70
2022/06/19 11:35:58;;;;;;;7.53;6.07;;;26.10;89.30;;;;;;5107777;28;20458;-73
2022/06/19 11:38:37;;;;;;;10.10;5.57;;;26.40;88.50;;;;;;5112533;27;20455;-70
2022/06/19 11:41:21;;;;;;;9.70;6.90;;;26.60;88.60;;;;;;5094746;28;20411;-70
2022/06/19 11:44:20;;;;;;;6.87;6.20;;;26.80;84.90;;;;;;5095095;28;20421;-72
2022/06/19 11:46:47;;;;;;;17.30;6.90;;;26.80;83.50;;;;;;5064346;28;20442;-69
2022/06/19 11:49:40;;;;;;;7.03;5.83;;;26.90;83.60;;;;;;5094733;28;20429;-70
2022/06/19 11:52:20;;;;;;;12.60;7.37;;;27.00;83.50;;;;;;5105502;28;20445;-68
2022/06/19 11:54:49;;;;;;;8.27;5.97;;;27.00;81.40;;;;;;5115602;28;20467;-70
2022/06/19 11:57:36;;;;;;;14.90;6.50;;;27.00;81.20;;;;;;5110635;27;20425;-72
2022/06/19 12:00:05;;;;;;;9.47;6.47;;;26.90;83.20;;;;;;5113828;28;20410;-70
2022/06/19 12:02:40;;;;;;;7.90;6.77;;;26.70;83.10;;;;;;5101969;28;20437;-70
2022/06/19 12:05:21;;;;;;;9.50;5.90;;;26.50;81.80;;;;;;5110953;27;20849;-71
2022/06/19 12:07:47;;;;;;;9.63;6.40;;;26.40;83.50;;;;;;5124869;27;20453;-70
2022/06/19 12:10:23;;;;;;;9.70;8.00;;;26.20;85.90;;;;;;5114540;28;20935;-70
2022/06/19 12:12:59;;;;;;;15.23;8.23;;;26.20;86.30;;;;;;5114767;28;20468;-70
2022/06/19 12:15:31;;;;;;;12.37;10.33;;;26.00;86.50;;;;;;5103784;27;20448;-69
2022/06/19 12:18:02;;;;;;;7.57;5.80;;;26.00;87.30;;;;;;5125931;27;20421;-73
2022/06/19 12:20:31;;;;;;;7.00;6.00;;;26.00;87.70;;;;;;5117097;27;20805;-69
2022/06/19 12:23:01;;;;;;;7.07;6.37;;;26.10;87.00;;;;;;5121708;27;20500;-68
2022/06/19 12:25:31;;;;;;;6.70;5.43;;;26.20;87.20;;;;;;5129705;27;20779;-68
2022/06/19 12:28:27;;;;;;;8.13;5.83;;;26.20;87.00;;;;;;5112007;28;20425;-69
2022/06/19 12:31:10;;;;;;;6.60;6.00;;;26.40;88.00;;;;;;5101280;28;20971;-68
2022/06/19 12:33:57;;;;;;;6.53;5.93;;;26.50;86.00;;;;;;5108217;28;20433;-70
2022/06/19 12:36:29;;;;;;;10.40;6.20;;;26.60;86.00;;;;;;5113405;27;20529;-70
2022/06/19 12:38:55;;;;;;;7.37;6.67;;;26.70;86.40;;;;;;5114064;27;20424;-70
2022/06/19 12:41:45;;;;;;;9.17;5.93;;;26.80;85.60;;;;;;5112148;27;20445;-71
2022/06/19 12:44:49;;;;;;;7.73;6.30;;;26.80;84.40;;;;;;5120981;27;20463;-72
2022/06/19 12:47:34;;;;;;;9.73;7.07;;;26.90;84.50;;;;;;5113290;27;20520;-75
2022/06/19 12:50:26;;;;;;;10.10;7.10;;;27.00;85.80;;;;;;5080042;28;20478;-72
2022/06/19 12:53:04;;;;;;;11.23;7.13;;;27.00;84.90;;;;;;5112480;27;20430;-70
2022/06/19 12:55:48;;;;;;;14.87;6.50;;;27.10;85.20;;;;;;5118312;27;20813;-70
2022/06/19 12:58:26;;;;;;;10.67;6.20;;;27.20;85.80;;;;;;5113502;27;20465;-70
2022/06/19 13:01:09;;;;;;;9.07;5.77;;;27.20;84.50;;;;;;5110498;27;20444;-71
2022/06/19 13:03:38;;;;;;;7.13;6.00;;;27.30;81.30;;;;;;5132056;27;20437;-70
2022/06/19 13:06:22;;;;;;;6.80;6.10;;;27.40;83.20;;;;;;5121146;27;20443;-70
2022/06/19 13:09:10;;;;;;;8.63;6.50;;;27.40;82.70;;;;;;5107904;27;20437;-70